LEPP

Pamplona Airport

Airport
ICAO code
LEPP
IATA Code
PNA
Summary
ICAO Region
EUR
ICAO Territory
Location

,

Serving
Pamplona
Elevation
1504 ft
Coordinates
42° 46' 12" N , 1° 38' 47" W
Metar
Observation
LEPP 050200Z AUTO VRB02KT 7000 NCD 00/00 Q1015
Station
Pamplona / Noain
Date/Time
2022-12-05 02:00:00
Wind speed
02 kts
Lowest cloud amount
no clouds detected
Temperature
0°C
Dew point
0°C
Humidity
100%
QNH
1015 hPa
Weather condition
n/a

Runways

Designator Length Width Surface Rops
15/33 0 0 UNK Yes/Yes
16/34 2207 45 ASP Yes/Yes

Airport map

Aerial View

SKYbrary Partners:

Safety knowledge contributed by: